This is the latest recevied weather packets stored in our database for station/object DL2AMT-9. If no packets are shown the sender has not sent any weather packets the latest 1 day(s).
| Time | Temp. | Humidity | Pressure | Rain* | Wind** | Luminosity | Snow |
|---|---|---|---|---|---|---|---|
| 1777978397 | 30° C | 36% | 963.5 hPa | - | - | - | - |
| 1777978097 | 30° C | 36% | 963.5 hPa | - | - | - | - |
| 1777977796 | 30.56° C | 35% | 963.6 hPa | - | - | - | - |
| 1777977496 | 31.67° C | 35% | 963.6 hPa | - | - | - | - |
| 1777977196 | 32.22° C | 35% | 963.7 hPa | - | - | - | - |
| 1777976896 | 33.33° C | 35% | 963.7 hPa | - | - | - | - |
| 1777976596 | 33.33° C | 35% | 964.1 hPa | - | - | - | - |
| 1777976292 | 33.33° C | 34% | 964.1 hPa | - | - | - | - |
| 1777973258 | 30° C | 37% | 970 hPa | - | - | - | - |
| 1777972057 | 29.44° C | 36% | 970.1 hPa | - | - | - | - |
| 1777970845 | 30° C | 39% | 964.4 hPa | - | - | - | - |
| 1777970537 | 29.44° C | 39% | 964.4 hPa | - | - | - | - |
| 1777970237 | 29.44° C | 38% | 964.4 hPa | - | - | - | - |
| 1777969937 | 29.44° C | 38% | 964.5 hPa | - | - | - | - |
| 1777969637 | 29.44° C | 38% | 964.4 hPa | - | - | - | - |
| 1777969337 | 29.44° C | 38% | 964.4 hPa | - | - | - | - |
| 1777969037 | 29.44° C | 38% | 964.4 hPa | - | - | - | - |
| 1777968736 | 28.89° C | 38% | 964.4 hPa | - | - | - | - |
| 1777968436 | 28.89° C | 38% | 964.4 hPa | - | - | - | - |
| 1777968136 | 29.44° C | 39% | 964.3 hPa | - | - | - | - |
| 1777967836 | 29.44° C | 40% | 964.4 hPa | - | - | - | - |
| 1777967536 | 29.44° C | 41% | 964.4 hPa | - | - | - | - |
| 1777967236 | 28.89° C | 39% | 964.6 hPa | - | - | - | - |
| 1777966936 | 28.33° C | 40% | 964.4 hPa | - | - | - | - |
| 1777966636 | 28.33° C | 40% | 964.4 hPa | - | - | - | - |
* Rain since midnight (hover to see other rain measurements)
** Current wind speed in m/s (hover to see current wind gust speed)